Flight Track Log - Related Links

Times and Time Zones

All times are in EDT time to prevent confusion due to time zone crossing. See the SWA2236 flight status page for this flight to view local times or setup timezone preferences in your user account.

Time Position Orientation Groundspeed Altitude Reporting Facility
EDT Latitude Longitude Course Direction KTS MPH feet Rate Location/Type
Wed 09:17:35 AM 35.0661 -106.5142 68° East 270 311 7,700  Level Albuquerque Center
Wed 09:18:36 AM 35.1047 -106.5706 310° West 255 293 9,800 1,574 Climbing Albuquerque Center
Wed 09:19:37 AM 35.1203 -106.6717 281° West 282 325 10,900 1,623 Climbing Albuquerque Center
Wed 09:20:38 AM 35.1397 -106.7894 281° West 344 396 13,100 2,754 Climbing Albuquerque Center
Wed 09:21:39 AM 35.1611 -106.9356 280° West 374 430 16,500 2,656 Climbing Albuquerque Center
Wed 09:22:40 AM 35.1786 -107.0617 280° West 379 436 18,500 2,262 Climbing Albuquerque Center
Wed 09:23:41 AM 35.1969 -107.1967 279° West 410 472 21,100 2,410 Climbing Albuquerque Center
Wed 09:24:42 AM 35.2161 -107.3350 280° West 419 482 23,400 2,066 Climbing Albuquerque Center
Wed 09:25:43 AM 35.2347 -107.4764 279° West 420 483 25,300 1,869 Climbing Albuquerque Center
Wed 09:26:44 AM 35.2567 -107.6406 279° West 432 497 27,200 1,770 Climbing Albuquerque Center
Wed 09:27:45 AM 35.2758 -107.7867 279° West 446 513 28,900 1,525 Climbing Albuquerque Center
Wed 09:28:46 AM 35.2961 -107.9325 280° West 452 520 30,300 1,672 Climbing Albuquerque Center
Wed 09:29:47 AM 35.3183 -108.1061 279° West 459 528 32,300 1,820 Climbing Albuquerque Center
Wed 09:30:48 AM 35.3369 -108.2544 279° West 459 528 34,000 1,672 Climbing Albuquerque Center
Wed 09:31:49 AM 35.3561 -108.3997 279° West 453 521 35,700 1,672 Climbing Albuquerque Center
Wed 09:32:50 AM 35.3761 -108.5669 278° West 446 513 37,400 1,131 Climbing Albuquerque Center
Wed 09:33:51 AM 35.3953 -108.7097 279° West 443 510 38,000 295 Climbing Albuquerque Center
Wed 09:34:52 AM 35.4119 -108.8539 278° West 443 510 38,000  Level Albuquerque Center
Wed 09:35:53 AM 35.4325 -109.0211 279° West 443 510 38,000  Level Albuquerque Center
Wed 09:36:54 AM 35.4500 -109.1644 279° West 443 510 38,000  Level Albuquerque Center
Wed 09:37:56 AM 35.4667 -109.3064 278° West 440 506 38,000  Level Albuquerque Center
Wed 09:38:57 AM 35.4869 -109.4719 279° West 437 503 38,000  Level Albuquerque Center
Wed 09:39:58 AM 35.5019 -109.6122 278° West 434 499 38,000  Level Albuquerque Center
Wed 09:40:59 AM 35.5197 -109.7747 278° West 431 496 38,000  Level Albuquerque Center
Wed 09:42:00 AM 35.5350 -109.9147 278° West 431 496 38,000  Level Albuquerque Center
Wed 09:43:02 AM 35.5497 -110.0542 277° West 431 496 38,000  Level Albuquerque Center
Wed 09:44:03 AM 35.5694 -110.2189 278° West 433 498 38,000  Level Albuquerque Center
Wed 09:45:04 AM 35.5844 -110.3611 277° West 437 503 38,000  Level Albuquerque Center
Wed 09:46:06 AM 35.6000 -110.5008 278° West 434 499 38,000  Level Albuquerque Center
Wed 09:47:07 AM 35.6167 -110.6644 277° West 433 498 38,000  Level Albuquerque Center
Wed 09:48:08 AM 35.6317 -110.8053 278° West 433 498 38,000  Level Albuquerque Center
Wed 09:49:09 AM 35.6492 -110.9706 277° West 434 499 38,000  Level Albuquerque Center
Wed 09:50:11 AM 35.6653 -111.1119 278° West 435 501 38,000  Level Albuquerque Center
Wed 09:51:12 AM 35.6811 -111.2542 278° West 437 503 38,000  Level Albuquerque Center
Wed 09:52:13 AM 35.6958 -111.4194 276° West 435 501 38,000  Level Albuquerque Center
Wed 09:53:15 AM 35.7094 -111.5442 278° West 437 503 38,000  Level Albuquerque Center
Wed 09:54:16 AM 35.7267 -111.7186 277° West 434 499 38,000  Level Albuquerque Center
Wed 09:55:18 AM 35.7411 -111.8625 277° West 429 494 38,000  Level Albuquerque Center
Wed 09:56:19 AM 35.7556 -112.0083 277° West 432 497 38,000  Level Albuquerque Center
Wed 09:57:28 AM 35.7717 -112.1819 277° West 431 496 38,000  Level Los Center
Wed 09:58:29 AM 35.7856 -112.3269 277° West 432 497 38,000  Level Los Center
Wed 09:59:31 AM 35.7992 -112.4733 277° West 434 499 38,000  Level Los Center
Wed 10:00:33 AM 35.8122 -112.6192 276° West 434 499 38,000  Level Los Center
Wed 10:01:34 AM 35.8258 -112.7656 277° West 436 502 38,000  Level Los Center
Wed 10:02:36 AM 35.8425 -112.9422 277° West 438 504 38,000  Level Los Center
Wed 10:03:50 AM 35.8550 -113.0886 276° West 434 499 38,000  Level Los Center
Wed 10:04:52 AM 35.8692 -113.2639 276° West 433 498 38,000  Level Los Center
Wed 10:05:53 AM 35.8817 -113.4103 276° West 436 502 38,000  Level Los Center
Wed 10:06:55 AM 35.8942 -113.5544 276° West 431 496 38,000  Level Los Center
Wed 10:07:57 AM 35.9069 -113.7286 275° West 421 484 38,000  Level Los Center
Wed 10:08:59 AM 35.9211 -113.8764 277° West 430 495 38,000  Level Los Center
Wed 10:10:01 AM 35.9319 -114.0222 275° West 427 491 38,000  Level Los Center
Wed 10:11:02 AM 35.9431 -114.1686 275° West 427 491 38,000  Level Los Center
Wed 10:12:16 AM 35.9542 -114.3153 275° West 428 493 38,000  Level Los Center
Wed 10:13:18 AM 35.9672 -114.4903 275° West 427 491 38,000  Level Los Center
Wed 10:14:20 AM 35.9792 -114.6375 276° West 428 493 38,000  Level Los Center
Wed 10:15:22 AM 35.9917 -114.8131 275° West 427 491 38,000  Level Los Center
Wed 10:16:24 AM 36.0336 -114.9500 291° West 426 490 38,000  Level Los Center
Wed 10:17:26 AM 36.0908 -115.0822 298° West 432 497 38,000  Level Los Center
Wed 10:18:28 AM 36.1486 -115.2136 299° West 434 499 38,000  Level Los Center
Wed 10:19:30 AM 36.2058 -115.3456 298° West 435 501 38,000  Level Los Center
Wed 10:20:31 AM 36.2633 -115.4781 298° West 436 502 38,000  Level Los Center
Wed 10:21:33 AM 36.3242 -115.6236 297° West 448 516 38,000  Level Los Center
Wed 10:22:35 AM 36.3850 -115.7644 298° West 446 513 38,000  Level Los Center
Wed 10:23:37 AM 36.4461 -115.9064 298° West 443 510 38,000  Level Los Center
Wed 10:24:39 AM 36.5044 -116.0431 298° West 447 514 38,000  Level Los Center
Wed 10:25:41 AM 36.5617 -116.1786 298° West 444 511 38,000  Level Los Center
Wed 10:26:43 AM 36.6189 -116.3142 298° West 443 510 38,000  Level Los Center
Wed 10:27:44 AM 36.6886 -116.4781 298° West 445 512 38,000  Level Los Center
Wed 10:28:46 AM 36.7350 -116.6197 292° West 443 510 38,000  Level Los Center
Wed 10:29:48 AM 36.7778 -116.7636 290° West 443 510 38,000  Level Los Center
Wed 10:30:50 AM 36.8208 -116.9083 290° West 443 510 38,000  Level Los Center
Wed 10:31:52 AM 36.8642 -117.0525 291° West 441 507 38,000  Level Los Center
Wed 10:32:26 AM 36.8883 -117.1389 289° West 441 507 38,000  Level Oakland Center
Wed 10:33:27 AM 36.9308 -117.2833 290° West 442 509 38,000  Level Oakland Center
Wed 10:34:28 AM 36.9736 -117.4281 290° West 441 507 38,000  Level Oakland Center
Wed 10:35:29 AM 37.0150 -117.5731 290° West 441 507 38,000  Level Oakland Center
Wed 10:36:30 AM 37.0561 -117.7167 290° West 439 505 38,000  Level Oakland Center
Wed 10:37:32 AM 37.0992 -117.8606 291° West 440 506 38,000  Level Oakland Center
Wed 10:38:33 AM 37.1394 -118.0031 290° West 435 501 38,000  Level Oakland Center
Wed 10:39:34 AM 37.1803 -118.1447 290° West 432 497 38,000  Level Oakland Center
Wed 10:40:35 AM 37.2203 -118.2867 290° West 431 496 38,000 -492 Level Oakland Center
Wed 10:41:36 AM 37.2686 -118.4561 290° West 430 495 37,000 -885 Descending Oakland Center
Wed 10:42:37 AM 37.3019 -118.5750 289° West 436 502 36,200 -488 Descending Oakland Center
Wed 10:43:39 AM 37.3494 -118.7475 289° West 441 507 36,000 -98 Descending Oakland Center
Wed 10:44:40 AM 37.3892 -118.8911 289° West 435 501 36,000  Level Oakland Center
Wed 10:45:41 AM 37.4286 -119.0378 289° West 441 507 36,000  Level Oakland Center
Wed 10:46:42 AM 37.4694 -119.1819 290° West 440 506 36,000  Level Oakland Center
Wed 10:47:43 AM 37.5086 -119.3272 289° West 439 505 36,000  Level Oakland Center
Wed 10:48:44 AM 37.5494 -119.4756 289° West 436 502 36,000 -195 Level Oakland Center
Wed 10:49:46 AM 37.5892 -119.6228 289° West 441 507 35,600 -683 Descending Oakland Center
Wed 10:50:47 AM 37.6278 -119.7667 289° West 436 502 34,600 -1,033 Descending Oakland Center
Wed 10:51:48 AM 37.6669 -119.9106 289° West 433 498 33,500 -1,033 Descending Oakland Center
Wed 10:52:49 AM 37.7042 -120.0489 289° West 417 480 32,500 -1,220 Descending Oakland Center
Wed 10:53:51 AM 37.7406 -120.1861 289° West 412 474 31,000 -1,707 Descending Oakland Center
Wed 10:54:52 AM 37.7750 -120.3175 288° West 394 453 29,000 -2,705 Descending Oakland Center
Wed 10:55:53 AM 37.8158 -120.4775 288° West 398 458 25,500 -3,148 Descending Oakland Center
Wed 10:56:54 AM 37.8517 -120.6147 288° West 407 468 22,600 -2,760 Descending Oakland Center
Wed 10:57:33 AM 37.8667 -120.7167 281° West 403 464 20,900 -1,657 Descending Northern TRACON
Wed 10:58:39 AM 37.8500 -120.8500 261° West 354 407 19,700 -1,048 Descending Northern TRACON
Wed 10:59:39 AM 37.8333 -120.9667 260° West 328 377 18,700 -1,263 Descending Northern TRACON
Wed 11:00:33 AM 37.8000 -121.0500 243° Southwest 323 372 17,300 -1,579 Descending Northern TRACON
Wed 11:01:33 AM 37.7833 -121.1500 258° West 328 377 15,700 -1,670 Descending Northern TRACON
Wed 11:02:28 AM 37.7500 -121.2500 247° West 317 365 14,100 -1,357 Descending Northern TRACON
Wed 11:03:28 AM 37.7333 -121.3500 258° West 283 326 13,100 -1,000 Descending Northern TRACON
Wed 11:04:22 AM 37.7167 -121.4167 252° West 247 284 12,200 -1,316 Descending Northern TRACON
Wed 11:05:22 AM 37.7000 -121.5167 258° West 251 289 10,600 -1,526 Descending Northern TRACON
Wed 11:06:16 AM 37.6667 -121.5833 238° Southwest 256 295 9,300 -1,158 Descending Northern TRACON
Wed 11:07:16 AM 37.6500 -121.6667 256° West 240 276 8,400 -857 Descending Northern TRACON
Wed 11:08:15 AM 37.6333 -121.7500 256° West 212 244 7,600 -1,059 Descending Northern TRACON
Wed 11:09:15 AM 37.6167 -121.8167 253° West 212 244 6,300 -1,250 Descending Northern TRACON
Wed 11:10:15 AM 37.6000 -121.8833 253° West 220 253 5,100 -1,000 Descending Northern TRACON
Wed 11:11:15 AM 37.5833 -121.9667 256° West 217 250 4,300 -835 Descending Northern TRACON
Wed 11:12:10 AM 37.5833 -122.0167 270° West 199 229 3,500 -783 Descending Northern TRACON
Wed 11:13:10 AM 37.6000 -122.0667 293° West 186 214 2,800 -756 Descending Northern TRACON
Wed 11:14:09 AM 37.6333 -122.1167 310° West 156 180 2,000 -789 Descending Northern TRACON
Wed 11:15:04 AM 37.6667 -122.1500 322° Northwest 144 166 1,300 -750 Descending Northern TRACON
Wed 11:16:09 AM 37.6833 -122.1833 302° West 136 157 500 -738 Descending Northern TRACON
Wed 11:19:00 AM 37.7167 -122.2167 270° West  Level FlightAware
Wed 11:26:00 AM 37.7213 -122.2207 270° West  Level Estimated

Login

Don't have an account? Register now (free) for customized features, flight alerts, and more!